createdAt,value
2022-08-05T00:04:56.423Z,101589.75
2022-08-05T00:09:57.958Z,101571.03
2022-08-05T00:15:00.164Z,101589.75
2022-08-05T00:20:21.713Z,101601.44
2022-08-05T00:25:23.232Z,101602.97
2022-08-05T00:30:29.241Z,101588.72
2022-08-05T00:35:33.660Z,101582.09
2022-08-05T00:40:51.902Z,101595.50
2022-08-05T00:45:55.378Z,101589.34
2022-08-05T00:50:56.952Z,101579.97
2022-08-05T00:55:58.456Z,101590.59
2022-08-05T01:01:00.125Z,101602.97
2022-08-05T01:06:02.645Z,101599.56
2022-08-05T01:11:22.464Z,101602.31
2022-08-05T01:16:52.531Z,101584.22
2022-08-05T01:22:23.884Z,101590.59
2022-08-05T01:27:59.774Z,101589.13
2022-08-05T01:33:08.019Z,101591.00
2022-08-05T01:38:14.646Z,101584.19
2022-08-05T01:43:30.027Z,101591.00
2022-08-05T01:48:34.862Z,101602.25
2022-08-05T01:53:57.134Z,101598.22
2022-08-05T01:59:02.472Z,101583.31
2022-08-05T02:04:06.956Z,101603.94
2022-08-05T02:09:08.498Z,101600.53
2022-08-05T02:14:23.888Z,101612.91
2022-08-05T02:19:28.765Z,101603.94
2022-08-05T02:24:39.196Z,101605.63
2022-08-05T02:29:59.599Z,101608.94
2022-08-05T02:35:13.766Z,101606.13
2022-08-05T02:40:17.581Z,101601.78
2022-08-05T02:45:21.494Z,101594.84
2022-08-05T02:50:26.903Z,101601.84
2022-08-05T02:55:54.191Z,101588.84
2022-08-05T03:00:55.281Z,101593.88
2022-08-05T03:06:55.156Z,101598.31
2022-08-05T03:11:53.659Z,101594.44
2022-08-05T03:16:46.850Z,101590.38
2022-08-05T03:21:50.062Z,101587.31
2022-08-05T03:26:51.754Z,101578.31
2022-08-05T03:31:56.912Z,101582.31
2022-08-05T03:37:03.270Z,101583.97
2022-08-05T03:42:04.948Z,101580.13
2022-08-05T03:47:06.766Z,101576.88
2022-08-05T03:52:50.622Z,101587.50
2022-08-05T03:57:41.994Z,101595.91
2022-08-05T04:02:52.322Z,101598.19
2022-08-05T04:08:02.931Z,101617.75
2022-08-05T04:13:06.466Z,101611.81
2022-08-05T04:18:09.765Z,101600.91
2022-08-05T04:23:16.146Z,101608.50
2022-08-05T04:28:19.240Z,101612.34
2022-08-05T04:34:17.871Z,101607.22
2022-08-05T04:38:43.768Z,101613.50
2022-08-05T04:43:52.980Z,101604.50
2022-08-05T04:48:54.507Z,101606.81
2022-08-05T04:53:56.005Z,101613.38
2022-08-05T04:58:57.542Z,101616.44
2022-08-05T05:03:59.060Z,101631.59
2022-08-05T05:09:01.176Z,101630.25
2022-08-05T05:14:07.060Z,101631.31
2022-08-05T05:19:18.786Z,101632.06
2022-08-05T05:24:21.730Z,101632.31
2022-08-05T05:29:23.202Z,101632.72
2022-08-05T05:34:26.635Z,101634.31
2022-08-05T05:39:31.675Z,101624.75
2022-08-05T05:44:37.680Z,101629.38
2022-08-05T05:49:44.581Z,101635.47
2022-08-05T05:54:54.165Z,101629.28
2022-08-05T05:59:55.803Z,101627.59
2022-08-05T06:04:58.588Z,101623.06
2022-08-05T06:10:08.320Z,101609.38
2022-08-05T06:15:23.529Z,101608.84
2022-08-05T06:20:25.785Z,101619.78
2022-08-05T06:26:13.050Z,101623.91
2022-08-05T06:30:51.670Z,101641.44
2022-08-05T06:36:03.626Z,101636.81
2022-08-05T06:41:09.750Z,101647.53
2022-08-05T06:46:13.309Z,101655.91
2022-08-05T06:51:23.891Z,101654.16
2022-08-05T06:56:34.938Z,101665.69
2022-08-05T07:01:36.904Z,101668.28
2022-08-05T07:06:38.482Z,101667.00
2022-08-05T07:11:40.141Z,101671.25
2022-08-05T07:17:56.912Z,101679.38
2022-08-05T07:22:12.128Z,101688.78
2022-08-05T07:27:17.338Z,101690.91
2022-08-05T07:32:18.842Z,101701.56
2022-08-05T07:37:29.241Z,101705.16
2022-08-05T07:42:37.659Z,101703.13
2022-08-05T07:47:42.472Z,101709.91
2022-08-05T07:52:45.191Z,101714.13
2022-08-05T07:57:56.258Z,101722.66
2022-08-05T08:03:15.363Z,101724.41
2022-08-05T08:08:19.922Z,101736.78
2022-08-05T08:13:29.239Z,101731.25
2022-08-05T08:18:31.042Z,101730.88
2022-08-05T08:24:02.399Z,101728.75
2022-08-05T08:28:59.821Z,101743.78
2022-08-05T08:34:18.709Z,101752.31
2022-08-05T08:39:31.470Z,101764.66
2022-08-05T08:45:17.857Z,101761.38
2022-08-05T08:50:30.987Z,101767.03
2022-08-05T08:56:02.137Z,101764.34
2022-08-05T09:00:48.749Z,101767.78
2022-08-05T09:06:08.447Z,101771.91
2022-08-05T09:11:13.950Z,101782.84
2022-08-05T09:16:16.864Z,101773.94
2022-08-05T09:21:20.819Z,101784.59
2022-08-05T09:26:22.824Z,101787.69
2022-08-05T09:32:39.056Z,101790.56
2022-08-05T09:36:55.844Z,101800.56
2022-08-05T09:42:04.787Z,101800.06
2022-08-05T09:47:15.426Z,101814.22
2022-08-05T09:52:23.643Z,101817.47
2022-08-05T09:57:45.371Z,101809.13
2022-08-05T10:02:51.395Z,101826.56
2022-08-05T10:08:35.080Z,101834.72
2022-08-05T10:13:47.813Z,101822.59
2022-08-05T10:18:50.527Z,101825.56
2022-08-05T10:24:00.033Z,101836.25
2022-08-05T10:29:02.541Z,101829.81
2022-08-05T10:34:06.947Z,101844.03
2022-08-05T10:39:25.255Z,101863.25
2022-08-05T10:44:45.104Z,101865.28
2022-08-05T10:50:31.961Z,101878.81
2022-08-05T10:56:14.917Z,101891.97
2022-08-05T11:01:54.578Z,101898.38
2022-08-05T11:07:07.333Z,101899.69
2022-08-05T11:12:24.378Z,101914.88
2022-08-05T11:17:58.827Z,101922.56
2022-08-05T11:22:53.962Z,101930.03
2022-08-05T11:28:00.830Z,101941.34
2022-08-05T11:33:21.430Z,101937.72
2022-08-05T11:38:45.721Z,101952.25
2022-08-05T11:44:01.106Z,101956.31
2022-08-05T11:49:15.515Z,101958.22
2022-08-05T11:54:33.308Z,101957.81
2022-08-05T11:59:49.471Z,101966.56
2022-08-05T12:04:59.195Z,101958.88
2022-08-05T12:10:09.562Z,101971.06
2022-08-05T12:15:33.934Z,101976.19
2022-08-05T12:20:40.639Z,101987.69
2022-08-05T12:25:56.401Z,101980.00
2022-08-05T12:31:02.405Z,101989.41
2022-08-05T12:36:07.231Z,101992.00
2022-08-05T12:41:12.950Z,102001.41
2022-08-05T12:46:26.702Z,101998.19
2022-08-05T12:52:14.332Z,102008.88
2022-08-05T12:56:58.732Z,102021.72
2022-08-05T13:02:08.175Z,102030.69
2022-08-05T13:07:16.014Z,102037.97
2022-08-05T13:12:20.510Z,102033.50
2022-08-05T13:17:42.003Z,102035.19
2022-08-05T13:22:51.192Z,102034.97
2022-08-05T13:27:54.638Z,102037.31
2022-08-05T13:32:56.621Z,102048.66
2022-08-05T13:37:58.130Z,102045.44
2022-08-05T13:43:12.119Z,102056.78
2022-08-05T13:48:57.497Z,102056.13
2022-08-05T13:53:35.503Z,102057.81
2022-08-05T13:58:53.348Z,102064.22
2022-08-05T14:04:13.966Z,102063.38
2022-08-05T14:09:16.101Z,102060.16
2022-08-05T14:14:23.089Z,102074.75
2022-08-05T14:19:27.012Z,102082.59
2022-08-05T14:24:30.543Z,102092.00
2022-08-05T14:29:32.974Z,102104.19
2022-08-05T14:34:35.853Z,102099.06
2022-08-05T14:39:49.401Z,102104.78
2022-08-05T14:44:51.920Z,102101.13
2022-08-05T14:49:59.410Z,102109.63
2022-08-05T14:55:03.818Z,102111.50
2022-08-05T15:00:06.184Z,102122.44
2022-08-05T15:05:13.673Z,102117.00
2022-08-05T15:10:15.129Z,102135.69
2022-08-05T15:15:16.921Z,102136.25
2022-08-05T15:20:38.839Z,102126.50
2022-08-05T15:25:52.840Z,102132.72
2022-08-05T15:30:57.313Z,102144.66
2022-08-05T15:35:59.276Z,102136.59
2022-08-05T15:41:21.903Z,102139.16
2022-08-05T15:46:25.243Z,102145.91
2022-08-05T15:52:10.344Z,102161.72
2022-08-05T15:56:49.614Z,102149.09
2022-08-05T16:01:53.318Z,102149.59
2022-08-05T16:06:58.005Z,102144.31
2022-08-05T16:12:00.274Z,102169.50
2022-08-05T16:17:04.033Z,102163.38
2022-08-05T16:22:07.722Z,102164.78
2022-08-05T16:27:16.069Z,102170.84
2022-08-05T16:32:21.607Z,102173.88
2022-08-05T16:38:03.147Z,102174.25
2022-08-05T16:42:52.799Z,102183.84
2022-08-05T16:47:58.487Z,102195.00
2022-08-05T16:53:12.709Z,102195.00
2022-08-05T16:58:25.020Z,102207.53
2022-08-05T17:03:26.861Z,102205.25
2022-08-05T17:08:36.777Z,102198.25
2022-08-05T17:13:51.266Z,102204.28
2022-08-05T17:19:02.302Z,102208.66
2022-08-05T17:24:30.361Z,102220.50
2022-08-05T17:29:33.467Z,102225.47
2022-08-05T17:34:41.993Z,102213.34
2022-08-05T17:39:44.218Z,102219.56
2022-08-05T17:44:50.122Z,102224.13
2022-08-05T17:50:03.586Z,102225.13
2022-08-05T17:55:07.864Z,102229.09
2022-08-05T18:00:10.248Z,102237.47
2022-08-05T18:05:16.783Z,102241.69
2022-08-05T18:10:21.065Z,102250.72
2022-08-05T18:15:24.285Z,102249.63
2022-08-05T18:20:32.080Z,102258.34
2022-08-05T18:25:33.981Z,102269.81
2022-08-05T18:30:39.055Z,102269.78
2022-08-05T18:36:01.399Z,102281.97
2022-08-05T18:41:58.283Z,102276.69
2022-08-05T18:46:29.187Z,102281.38
2022-08-05T18:52:04.322Z,102289.47
2022-08-05T18:57:15.251Z,102295.66
2022-08-05T19:02:28.149Z,102300.31
2022-08-05T19:07:45.591Z,102301.38
2022-08-05T19:12:48.802Z,102309.78
2022-08-05T19:17:59.896Z,102298.13
2022-08-05T19:24:04.170Z,102315.91
2022-08-05T19:28:34.642Z,102313.94
2022-08-05T19:33:38.062Z,102326.06
2022-08-05T19:38:43.653Z,102325.75
2022-08-05T19:44:06.368Z,102342.31
2022-08-05T19:49:07.720Z,102343.72
2022-08-05T19:54:21.754Z,102351.47
2022-08-05T20:00:00.994Z,102361.66
2022-08-05T20:04:55.405Z,102367.03
2022-08-05T20:10:00.157Z,102375.66
2022-08-05T20:15:05.790Z,102377.53
2022-08-05T20:20:14.486Z,102390.97
2022-08-05T20:25:15.996Z,102393.19
2022-08-05T20:30:18.272Z,102398.69
2022-08-05T20:35:21.463Z,102411.56
2022-08-05T20:40:25.743Z,102413.97
2022-08-05T20:45:55.854Z,102415.66
2022-08-05T20:50:50.085Z,102422.13
2022-08-05T20:55:56.171Z,102420.00
2022-08-05T21:01:09.699Z,102418.09
2022-08-05T21:06:27.830Z,102418.22
2022-08-05T21:12:10.756Z,102426.09
2022-08-05T21:16:51.966Z,102428.13
2022-08-05T21:21:53.993Z,102428.06
2022-08-05T21:26:58.991Z,102434.28
2022-08-05T21:32:03.974Z,102430.06
2022-08-05T21:37:08.033Z,102429.38
2022-08-05T21:42:30.691Z,102442.97
2022-08-05T21:47:55.108Z,102449.69
2022-08-05T21:52:53.737Z,102446.69
2022-08-05T21:58:00.588Z,102453.31
2022-08-05T22:03:05.109Z,102447.03
2022-08-05T22:08:06.841Z,102446.91
2022-08-05T22:14:19.827Z,102461.06
2022-08-05T22:18:49.272Z,102453.84
2022-08-05T22:24:13.220Z,102452.78
2022-08-05T22:29:33.085Z,102452.69
2022-08-05T22:34:34.787Z,102459.22
2022-08-05T22:39:37.765Z,102468.25
2022-08-05T22:44:56.337Z,102462.34
2022-08-05T22:50:21.633Z,102473.38
2022-08-05T22:55:26.031Z,102470.00
2022-08-05T23:00:28.024Z,102481.06
2022-08-05T23:05:29.526Z,102490.03
2022-08-05T23:10:37.417Z,102485.28
2022-08-05T23:15:40.495Z,102492.09
2022-08-05T23:20:43.244Z,102494.03
2022-08-05T23:25:51.954Z,102487.38
2022-08-05T23:30:55.987Z,102500.13
2022-08-05T23:36:17.581Z,102500.41
2022-08-05T23:41:19.397Z,102506.66
2022-08-05T23:46:22.136Z,102512.16
2022-08-05T23:51:23.782Z,102504.97
2022-08-05T23:56:27.360Z,102513.34
